Hiles, WI

8:26 PM CST on December 21, 2014 (GMT -0600)
Argonne, WI | Change Station
CLOSE
Current Station
Personal Weather Station
Location: Argonne, WI
Elevation: 1620 ft
Nearby Weather Stations
Active Advisory: Special Statement

Elev 1620 ft 45.65 °N, 88.86 °W | Updated 60 seconds ago

Snow
Snow
32.3 °F
Feels Like 24 °F
N
10.0
Wind Variable Wind from SE
Gusts 13.0 mph

Today
High -- | Low -- °F
--% Chance of Precip.
Yesterday
High -- | Low -- °F
Precip. -- in
7:33 AM 4:13 PM
New Moon, 0% visible
Pressure 29.83 in
Visibility 2.5 miles
Clouds Overcast 600 ft
Windchill 24 °F
Dew Point 31 °F
Humidity 96%
Rainfall 0.00 in
Snow Depth Not available.
UV 0 out of 12
Pollen .10 out of 12
Air Quality Not available.
Flu Activity Not available.
METAR KEGV 220215Z AUTO 17006KT 2 1/2SM -SN OVC006 00/00 A2983 RMK AO2 T00000000

More Conditions Fewer Conditions

Pressure 29.83 in
Visibility 2.5 miles
Clouds Overcast 600 ft
Windchill 24 °F
Dew Point 31 °F
Humidity 96%
Rainfall 0.00 in
Snow Depth Not available.
UV 0 out of 12
Pollen .10 out of 12
Air Quality Not available.
Flu Activity Not available.
METAR KEGV 220215Z AUTO 17006KT 2 1/2SM -SN OVC006 00/00 A2983 RMK AO2 T00000000

More Conditions Fewer Conditions

10-Day Weather Forecast

Almanac

Astronomy

Dec. 21, 2014 Rise Set
Actual Time
Civil Twilight
Nautical Twilight
Astronomical Twilight
Moon
Length of Visible Light
Length of Day
Tomorrow will be .
, % of the Moon is Illuminated

Today's Extremes

State Highs State Lows

Community

WunderPhotos

Upload Photos

1,779,525 photos uploaded!

WunderBlogs® & News

Nearby

Air Quality

  Air Quality AQ Index Pollutant
Not available.

Snow Depth

Station Depth Elevation

Earthquake Activity

City Distance Mag. Time & Date
Minimum magnitude displayed is 2.5.

Coastal Water Temperatures

Place Temperature

Nearby Weather Stations